sensor_id;sensor_type;location;lat;lon;timestamp;temperature;humidity
5429;DHT22;2737;52.386;9.980;2023-02-18T00:00:54;7.10;99.90
5429;DHT22;2737;52.386;9.980;2023-02-18T00:03:22;7.10;99.90
5429;DHT22;2737;52.386;9.980;2023-02-18T00:05:51;7.10;99.90
5429;DHT22;2737;52.386;9.980;2023-02-18T00:08:18;7.00;99.90
5429;DHT22;2737;52.386;9.980;2023-02-18T00:10:46;7.00;99.90
5429;DHT22;2737;52.386;9.980;2023-02-18T00:13:13;7.00;99.90
5429;DHT22;2737;52.386;9.980;2023-02-18T00:15:40;7.10;99.90
5429;DHT22;2737;52.386;9.980;2023-02-18T00:18:07;7.10;99.90
5429;DHT22;2737;52.386;9.980;2023-02-18T00:20:37;7.00;99.90
5429;DHT22;2737;52.386;9.980;2023-02-18T00:23:05;7.00;99.90
5429;DHT22;2737;52.386;9.980;2023-02-18T00:25:32;7.10;99.90
5429;DHT22;2737;52.386;9.980;2023-02-18T00:27:59;7.10;99.90
5429;DHT22;2737;52.386;9.980;2023-02-18T00:30:26;7.00;99.90
5429;DHT22;2737;52.386;9.980;2023-02-18T00:32:54;7.00;99.90
5429;DHT22;2737;52.386;9.980;2023-02-18T00:35:21;7.00;99.90
5429;DHT22;2737;52.386;9.980;2023-02-18T00:37:50;7.10;99.90
5429;DHT22;2737;52.386;9.980;2023-02-18T00:40:19;7.10;99.90
5429;DHT22;2737;52.386;9.980;2023-02-18T00:42:46;7.10;99.90
5429;DHT22;2737;52.386;9.980;2023-02-18T00:45:14;7.10;99.90
5429;DHT22;2737;52.386;9.980;2023-02-18T00:47:41;7.10;99.90
5429;DHT22;2737;52.386;9.980;2023-02-18T00:50:09;7.10;99.90
5429;DHT22;2737;52.386;9.980;2023-02-18T00:52:36;7.10;99.90
5429;DHT22;2737;52.386;9.980;2023-02-18T00:55:04;7.10;99.90
5429;DHT22;2737;52.386;9.980;2023-02-18T00:57:32;7.00;99.90
5429;DHT22;2737;52.386;9.980;2023-02-18T00:59:59;7.00;99.90
5429;DHT22;2737;52.386;9.980;2023-02-18T01:02:26;7.00;99.90
5429;DHT22;2737;52.386;9.980;2023-02-18T01:04:53;7.00;99.90
5429;DHT22;2737;52.386;9.980;2023-02-18T01:07:20;7.00;99.90
5429;DHT22;2737;52.386;9.980;2023-02-18T01:09:47;7.00;99.90
5429;DHT22;2737;52.386;9.980;2023-02-18T01:12:15;7.00;99.90
5429;DHT22;2737;52.386;9.980;2023-02-18T01:14:43;7.00;99.90
5429;DHT22;2737;52.386;9.980;2023-02-18T01:17:11;7.00;99.90
5429;DHT22;2737;52.386;9.980;2023-02-18T01:19:38;7.00;99.90
5429;DHT22;2737;52.386;9.980;2023-02-18T01:22:05;7.00;99.90
5429;DHT22;2737;52.386;9.980;2023-02-18T01:24:32;7.10;99.90
5429;DHT22;2737;52.386;9.980;2023-02-18T01:26:59;7.10;99.90
5429;DHT22;2737;52.386;9.980;2023-02-18T01:29:26;7.10;99.90
5429;DHT22;2737;52.386;9.980;2023-02-18T01:31:55;7.20;99.90
5429;DHT22;2737;52.386;9.980;2023-02-18T01:34:22;7.20;99.90
5429;DHT22;2737;52.386;9.980;2023-02-18T01:36:49;7.20;99.90
5429;DHT22;2737;52.386;9.980;2023-02-18T01:39:16;7.20;99.90
5429;DHT22;2737;52.386;9.980;2023-02-18T01:41:43;7.20;99.90
5429;DHT22;2737;52.386;9.980;2023-02-18T01:44:15;7.20;99.90
5429;DHT22;2737;52.386;9.980;2023-02-18T01:46:43;7.30;99.90
5429;DHT22;2737;52.386;9.980;2023-02-18T01:49:14;7.30;99.90
5429;DHT22;2737;52.386;9.980;2023-02-18T01:51:45;7.30;99.90
5429;DHT22;2737;52.386;9.980;2023-02-18T01:54:15;7.30;99.90
5429;DHT22;2737;52.386;9.980;2023-02-18T01:56:46;7.30;99.90
5429;DHT22;2737;52.386;9.980;2023-02-18T01:59:24;7.30;99.90
5429;DHT22;2737;52.386;9.980;2023-02-18T02:01:52;7.30;99.90
5429;DHT22;2737;52.386;9.980;2023-02-18T02:04:21;7.40;99.90
5429;DHT22;2737;52.386;9.980;2023-02-18T02:06:48;7.40;99.90
5429;DHT22;2737;52.386;9.980;2023-02-18T02:09:18;7.40;99.90
5429;DHT22;2737;52.386;9.980;2023-02-18T02:12:10;7.40;99.90
5429;DHT22;2737;52.386;9.980;2023-02-18T02:17:38;7.40;99.90
5429;DHT22;2737;52.386;9.980;2023-02-18T02:20:41;7.40;99.90
5429;DHT22;2737;52.386;9.980;2023-02-18T02:23:35;7.40;99.90
5429;DHT22;2737;52.386;9.980;2023-02-18T02:29:17;7.40;99.90
5429;DHT22;2737;52.386;9.980;2023-02-18T02:34:57;7.50;99.90
5429;DHT22;2737;52.386;9.980;2023-02-18T02:37:33;7.50;99.90
5429;DHT22;2737;52.386;9.980;2023-02-18T02:40:09;7.50;99.90
5429;DHT22;2737;52.386;9.980;2023-02-18T02:42:45;7.50;99.90
5429;DHT22;2737;52.386;9.980;2023-02-18T02:45:22;7.50;99.90
5429;DHT22;2737;52.386;9.980;2023-02-18T02:47:58;7.50;99.90
5429;DHT22;2737;52.386;9.980;2023-02-18T02:50:36;7.50;99.90
5429;DHT22;2737;52.386;9.980;2023-02-18T02:53:10;7.50;99.90
5429;DHT22;2737;52.386;9.980;2023-02-18T02:55:39;7.50;99.90
5429;DHT22;2737;52.386;9.980;2023-02-18T02:58:06;7.60;99.90
5429;DHT22;2737;52.386;9.980;2023-02-18T03:00:39;7.60;99.90
5429;DHT22;2737;52.386;9.980;2023-02-18T03:03:32;7.60;99.90
5429;DHT22;2737;52.386;9.980;2023-02-18T03:06:21;7.60;99.90
5429;DHT22;2737;52.386;9.980;2023-02-18T03:08:57;7.60;99.90
5429;DHT22;2737;52.386;9.980;2023-02-18T03:11:29;7.60;99.90
5429;DHT22;2737;52.386;9.980;2023-02-18T03:14:06;7.50;99.90
5429;DHT22;2737;52.386;9.980;2023-02-18T03:16:38;7.60;99.90
5429;DHT22;2737;52.386;9.980;2023-02-18T03:19:11;7.60;99.90
5429;DHT22;2737;52.386;9.980;2023-02-18T03:21:44;7.60;99.90
5429;DHT22;2737;52.386;9.980;2023-02-18T03:24:15;7.60;99.90
5429;DHT22;2737;52.386;9.980;2023-02-18T03:26:45;7.60;99.90
5429;DHT22;2737;52.386;9.980;2023-02-18T03:29:14;7.70;99.90
5429;DHT22;2737;52.386;9.980;2023-02-18T03:31:46;7.60;99.90
5429;DHT22;2737;52.386;9.980;2023-02-18T03:34:17;7.70;99.90
5429;DHT22;2737;52.386;9.980;2023-02-18T03:36:47;7.70;99.90
5429;DHT22;2737;52.386;9.980;2023-02-18T03:39:15;7.60;99.90
5429;DHT22;2737;52.386;9.980;2023-02-18T03:41:43;7.60;99.90
5429;DHT22;2737;52.386;9.980;2023-02-18T03:44:11;7.60;99.90
5429;DHT22;2737;52.386;9.980;2023-02-18T03:46:39;7.60;99.90
5429;DHT22;2737;52.386;9.980;2023-02-18T03:49:08;7.60;99.90
5429;DHT22;2737;52.386;9.980;2023-02-18T03:51:36;7.60;99.90
5429;DHT22;2737;52.386;9.980;2023-02-18T03:54:04;7.60;99.90
5429;DHT22;2737;52.386;9.980;2023-02-18T03:56:32;7.60;99.90
5429;DHT22;2737;52.386;9.980;2023-02-18T03:59:00;7.60;99.90
5429;DHT22;2737;52.386;9.980;2023-02-18T04:01:27;7.50;99.90
5429;DHT22;2737;52.386;9.980;2023-02-18T04:03:54;7.50;99.90
5429;DHT22;2737;52.386;9.980;2023-02-18T04:06:21;7.50;99.90
5429;DHT22;2737;52.386;9.980;2023-02-18T04:08:48;7.50;99.90
5429;DHT22;2737;52.386;9.980;2023-02-18T04:11:17;7.50;99.90
5429;DHT22;2737;52.386;9.980;2023-02-18T04:13:44;7.60;99.90
5429;DHT22;2737;52.386;9.980;2023-02-18T04:16:11;7.60;99.90
5429;DHT22;2737;52.386;9.980;2023-02-18T04:18:38;7.60;99.90
5429;DHT22;2737;52.386;9.980;2023-02-18T04:21:05;7.50;99.90
5429;DHT22;2737;52.386;9.980;2023-02-18T04:23:33;7.60;99.90
5429;DHT22;2737;52.386;9.980;2023-02-18T04:26:00;7.60;99.90
5429;DHT22;2737;52.386;9.980;2023-02-18T04:28:28;7.60;99.90
5429;DHT22;2737;52.386;9.980;2023-02-18T04:30:55;7.70;99.90
5429;DHT22;2737;52.386;9.980;2023-02-18T04:33:22;7.60;99.90
5429;DHT22;2737;52.386;9.980;2023-02-18T04:35:49;7.60;99.90
5429;DHT22;2737;52.386;9.980;2023-02-18T04:38:16;7.60;99.90
5429;DHT22;2737;52.386;9.980;2023-02-18T04:40:43;7.50;99.90
5429;DHT22;2737;52.386;9.980;2023-02-18T04:43:11;7.40;99.90
5429;DHT22;2737;52.386;9.980;2023-02-18T04:45:39;7.40;99.90
5429;DHT22;2737;52.386;9.980;2023-02-18T04:48:06;7.30;99.90
5429;DHT22;2737;52.386;9.980;2023-02-18T04:50:33;7.30;99.90
5429;DHT22;2737;52.386;9.980;2023-02-18T04:53:00;7.20;99.90
5429;DHT22;2737;52.386;9.980;2023-02-18T04:55:27;7.10;99.90
5429;DHT22;2737;52.386;9.980;2023-02-18T04:57:54;7.00;99.90
5429;DHT22;2737;52.386;9.980;2023-02-18T05:00:22;7.00;99.90
5429;DHT22;2737;52.386;9.980;2023-02-18T05:02:50;6.90;99.90
5429;DHT22;2737;52.386;9.980;2023-02-18T05:05:17;6.90;99.90
5429;DHT22;2737;52.386;9.980;2023-02-18T05:07:44;6.80;99.90
5429;DHT22;2737;52.386;9.980;2023-02-18T05:10:15;6.80;99.90
5429;DHT22;2737;52.386;9.980;2023-02-18T05:12:43;6.80;99.90
5429;DHT22;2737;52.386;9.980;2023-02-18T05:15:10;6.80;99.90
5429;DHT22;2737;52.386;9.980;2023-02-18T05:17:37;6.80;99.90
5429;DHT22;2737;52.386;9.980;2023-02-18T05:20:07;6.70;99.90
5429;DHT22;2737;52.386;9.980;2023-02-18T05:22:34;6.70;99.90
5429;DHT22;2737;52.386;9.980;2023-02-18T05:25:01;6.70;99.90
5429;DHT22;2737;52.386;9.980;2023-02-18T05:27:29;6.70;99.90
5429;DHT22;2737;52.386;9.980;2023-02-18T05:29:56;6.70;99.90
5429;DHT22;2737;52.386;9.980;2023-02-18T05:32:23;6.70;99.90
5429;DHT22;2737;52.386;9.980;2023-02-18T05:34:50;6.80;99.90
5429;DHT22;2737;52.386;9.980;2023-02-18T05:37:18;6.80;99.90
5429;DHT22;2737;52.386;9.980;2023-02-18T05:39:45;6.80;99.90
5429;DHT22;2737;52.386;9.980;2023-02-18T05:42:12;6.70;99.90
5429;DHT22;2737;52.386;9.980;2023-02-18T05:44:39;6.80;99.90
5429;DHT22;2737;52.386;9.980;2023-02-18T05:47:08;6.80;99.90
5429;DHT22;2737;52.386;9.980;2023-02-18T05:49:36;6.80;99.90
5429;DHT22;2737;52.386;9.980;2023-02-18T05:52:04;6.90;99.90
5429;DHT22;2737;52.386;9.980;2023-02-18T05:54:33;6.90;99.90
5429;DHT22;2737;52.386;9.980;2023-02-18T05:57:00;6.90;99.90
5429;DHT22;2737;52.386;9.980;2023-02-18T05:59:28;6.90;99.90
5429;DHT22;2737;52.386;9.980;2023-02-18T06:01:55;6.90;99.90
5429;DHT22;2737;52.386;9.980;2023-02-18T06:04:23;6.90;99.90
5429;DHT22;2737;52.386;9.980;2023-02-18T06:06:50;7.00;99.90
5429;DHT22;2737;52.386;9.980;2023-02-18T06:09:17;6.90;99.90
5429;DHT22;2737;52.386;9.980;2023-02-18T06:11:45;6.90;99.90
5429;DHT22;2737;52.386;9.980;2023-02-18T06:14:13;6.90;99.90
5429;DHT22;2737;52.386;9.980;2023-02-18T06:16:40;6.90;99.90
5429;DHT22;2737;52.386;9.980;2023-02-18T06:19:07;6.90;99.90
5429;DHT22;2737;52.386;9.980;2023-02-18T06:21:34;6.90;99.90
5429;DHT22;2737;52.386;9.980;2023-02-18T06:24:01;6.90;99.90
5429;DHT22;2737;52.386;9.980;2023-02-18T06:26:28;6.90;99.90
5429;DHT22;2737;52.386;9.980;2023-02-18T06:28:56;6.90;99.90
5429;DHT22;2737;52.386;9.980;2023-02-18T06:31:23;7.00;99.90
5429;DHT22;2737;52.386;9.980;2023-02-18T06:33:50;7.00;99.90
5429;DHT22;2737;52.386;9.980;2023-02-18T06:36:18;7.00;99.90
5429;DHT22;2737;52.386;9.980;2023-02-18T06:38:45;7.00;99.90
5429;DHT22;2737;52.386;9.980;2023-02-18T06:41:13;7.00;99.90
5429;DHT22;2737;52.386;9.980;2023-02-18T06:43:40;7.00;99.90
5429;DHT22;2737;52.386;9.980;2023-02-18T06:46:08;7.00;99.90
5429;DHT22;2737;52.386;9.980;2023-02-18T06:48:35;7.00;99.90
5429;DHT22;2737;52.386;9.980;2023-02-18T06:51:04;7.00;99.90
5429;DHT22;2737;52.386;9.980;2023-02-18T06:53:31;7.00;99.90
5429;DHT22;2737;52.386;9.980;2023-02-18T06:55:58;7.00;99.90
5429;DHT22;2737;52.386;9.980;2023-02-18T06:58:25;7.00;99.90
5429;DHT22;2737;52.386;9.980;2023-02-18T07:00:52;7.00;99.90
5429;DHT22;2737;52.386;9.980;2023-02-18T07:03:20;7.00;99.90
5429;DHT22;2737;52.386;9.980;2023-02-18T07:05:47;7.00;99.90
5429;DHT22;2737;52.386;9.980;2023-02-18T07:08:16;7.00;99.90
5429;DHT22;2737;52.386;9.980;2023-02-18T07:10:43;7.00;99.90
5429;DHT22;2737;52.386;9.980;2023-02-18T07:13:10;7.00;99.90
5429;DHT22;2737;52.386;9.980;2023-02-18T07:15:37;7.10;99.90
5429;DHT22;2737;52.386;9.980;2023-02-18T07:18:04;7.10;99.90
5429;DHT22;2737;52.386;9.980;2023-02-18T07:20:33;7.10;99.90
5429;DHT22;2737;52.386;9.980;2023-02-18T07:23:00;7.10;99.90
5429;DHT22;2737;52.386;9.980;2023-02-18T07:25:27;7.20;99.90
5429;DHT22;2737;52.386;9.980;2023-02-18T07:27:54;7.20;99.90
5429;DHT22;2737;52.386;9.980;2023-02-18T07:30:22;7.10;99.90
5429;DHT22;2737;52.386;9.980;2023-02-18T07:32:49;7.20;99.90
5429;DHT22;2737;52.386;9.980;2023-02-18T07:35:17;7.20;99.90
5429;DHT22;2737;52.386;9.980;2023-02-18T07:37:48;7.20;99.90
5429;DHT22;2737;52.386;9.980;2023-02-18T07:40:18;7.30;99.90
5429;DHT22;2737;52.386;9.980;2023-02-18T07:42:45;7.30;99.90
5429;DHT22;2737;52.386;9.980;2023-02-18T07:45:13;7.40;99.90
5429;DHT22;2737;52.386;9.980;2023-02-18T07:47:40;7.50;99.90
5429;DHT22;2737;52.386;9.980;2023-02-18T07:50:08;7.50;99.90
5429;DHT22;2737;52.386;9.980;2023-02-18T07:52:36;7.50;99.90
5429;DHT22;2737;52.386;9.980;2023-02-18T07:55:05;7.60;99.90
5429;DHT22;2737;52.386;9.980;2023-02-18T07:57:32;7.60;99.90
5429;DHT22;2737;52.386;9.980;2023-02-18T08:00:19;7.70;99.90
5429;DHT22;2737;52.386;9.980;2023-02-18T08:02:46;7.70;99.90
5429;DHT22;2737;52.386;9.980;2023-02-18T08:05:16;7.80;99.90
5429;DHT22;2737;52.386;9.980;2023-02-18T08:07:43;7.80;99.90
5429;DHT22;2737;52.386;9.980;2023-02-18T08:10:11;7.80;99.90
5429;DHT22;2737;52.386;9.980;2023-02-18T08:12:38;7.90;99.90
5429;DHT22;2737;52.386;9.980;2023-02-18T08:15:06;7.90;99.90
5429;DHT22;2737;52.386;9.980;2023-02-18T08:17:33;8.00;99.90
5429;DHT22;2737;52.386;9.980;2023-02-18T08:20:00;8.00;99.90
5429;DHT22;2737;52.386;9.980;2023-02-18T08:22:27;8.10;99.90
5429;DHT22;2737;52.386;9.980;2023-02-18T08:24:55;8.20;99.90
5429;DHT22;2737;52.386;9.980;2023-02-18T08:27:23;8.30;99.90
5429;DHT22;2737;52.386;9.980;2023-02-18T08:29:51;8.40;99.90
5429;DHT22;2737;52.386;9.980;2023-02-18T08:32:18;8.50;99.90
5429;DHT22;2737;52.386;9.980;2023-02-18T08:34:45;8.60;99.90
5429;DHT22;2737;52.386;9.980;2023-02-18T08:37:12;8.70;99.90
5429;DHT22;2737;52.386;9.980;2023-02-18T08:39:39;8.70;99.90
5429;DHT22;2737;52.386;9.980;2023-02-18T08:42:06;8.80;99.90
5429;DHT22;2737;52.386;9.980;2023-02-18T08:44:35;8.90;99.90
5429;DHT22;2737;52.386;9.980;2023-02-18T08:47:02;8.90;99.90
5429;DHT22;2737;52.386;9.980;2023-02-18T08:49:29;9.00;99.90
5429;DHT22;2737;52.386;9.980;2023-02-18T08:51:56;9.10;99.90
5429;DHT22;2737;52.386;9.980;2023-02-18T08:54:23;9.20;99.90
5429;DHT22;2737;52.386;9.980;2023-02-18T08:56:53;9.30;99.90
5429;DHT22;2737;52.386;9.980;2023-02-18T08:59:20;9.30;99.90
5429;DHT22;2737;52.386;9.980;2023-02-18T09:01:48;9.30;99.90
5429;DHT22;2737;52.386;9.980;2023-02-18T09:04:16;9.40;99.90
5429;DHT22;2737;52.386;9.980;2023-02-18T09:06:45;9.40;99.90
5429;DHT22;2737;52.386;9.980;2023-02-18T09:09:12;9.50;99.90
5429;DHT22;2737;52.386;9.980;2023-02-18T09:11:40;9.60;99.90
5429;DHT22;2737;52.386;9.980;2023-02-18T09:14:08;9.70;99.90
5429;DHT22;2737;52.386;9.980;2023-02-18T09:16:35;9.70;99.90
5429;DHT22;2737;52.386;9.980;2023-02-18T09:19:04;9.70;99.90
5429;DHT22;2737;52.386;9.980;2023-02-18T09:21:32;9.80;99.90
5429;DHT22;2737;52.386;9.980;2023-02-18T09:23:59;9.80;99.90
5429;DHT22;2737;52.386;9.980;2023-02-18T09:26:26;9.80;99.90
5429;DHT22;2737;52.386;9.980;2023-02-18T09:28:55;9.90;99.90
5429;DHT22;2737;52.386;9.980;2023-02-18T09:31:25;9.90;99.90
5429;DHT22;2737;52.386;9.980;2023-02-18T09:33:54;9.90;99.90
5429;DHT22;2737;52.386;9.980;2023-02-18T09:36:22;10.00;99.90
5429;DHT22;2737;52.386;9.980;2023-02-18T09:38:49;10.00;99.90
5429;DHT22;2737;52.386;9.980;2023-02-18T09:41:26;10.10;99.90
5429;DHT22;2737;52.386;9.980;2023-02-18T09:43:57;10.20;99.90
5429;DHT22;2737;52.386;9.980;2023-02-18T09:46:28;10.30;99.90
5429;DHT22;2737;52.386;9.980;2023-02-18T09:48:59;10.30;99.90
5429;DHT22;2737;52.386;9.980;2023-02-18T09:51:27;10.30;99.90
5429;DHT22;2737;52.386;9.980;2023-02-18T09:53:55;10.40;99.90
5429;DHT22;2737;52.386;9.980;2023-02-18T09:56:26;10.40;99.90
5429;DHT22;2737;52.386;9.980;2023-02-18T09:58:54;10.40;99.90
5429;DHT22;2737;52.386;9.980;2023-02-18T10:01:27;10.50;99.90
5429;DHT22;2737;52.386;9.980;2023-02-18T10:03:58;10.50;99.90
5429;DHT22;2737;52.386;9.980;2023-02-18T10:06:30;10.60;99.90
5429;DHT22;2737;52.386;9.980;2023-02-18T10:09:01;10.50;99.90
5429;DHT22;2737;52.386;9.980;2023-02-18T10:11:30;10.50;99.90
5429;DHT22;2737;52.386;9.980;2023-02-18T10:14:00;10.50;99.90
5429;DHT22;2737;52.386;9.980;2023-02-18T10:16:29;10.50;99.90
5429;DHT22;2737;52.386;9.980;2023-02-18T10:18:58;10.50;99.90
5429;DHT22;2737;52.386;9.980;2023-02-18T10:21:29;10.50;99.90
5429;DHT22;2737;52.386;9.980;2023-02-18T10:24:00;10.60;99.90
5429;DHT22;2737;52.386;9.980;2023-02-18T10:26:30;10.60;99.90
5429;DHT22;2737;52.386;9.980;2023-02-18T10:28:57;10.60;99.90
5429;DHT22;2737;52.386;9.980;2023-02-18T10:31:27;10.60;99.90
5429;DHT22;2737;52.386;9.980;2023-02-18T10:33:59;10.50;99.90
5429;DHT22;2737;52.386;9.980;2023-02-18T10:36:35;10.50;99.90
5429;DHT22;2737;52.386;9.980;2023-02-18T10:39:29;10.40;99.90
5429;DHT22;2737;52.386;9.980;2023-02-18T10:42:07;10.40;99.90
5429;DHT22;2737;52.386;9.980;2023-02-18T10:44:45;10.30;99.90
5429;DHT22;2737;52.386;9.980;2023-02-18T10:47:22;10.30;99.90
5429;DHT22;2737;52.386;9.980;2023-02-18T10:49:57;10.20;99.90
5429;DHT22;2737;52.386;9.980;2023-02-18T10:52:27;10.20;99.90
5429;DHT22;2737;52.386;9.980;2023-02-18T10:54:58;10.10;99.90
5429;DHT22;2737;52.386;9.980;2023-02-18T10:57:26;10.20;99.90
5429;DHT22;2737;52.386;9.980;2023-02-18T10:59:56;10.20;99.90
5429;DHT22;2737;52.386;9.980;2023-02-18T11:02:26;10.20;99.90
5429;DHT22;2737;52.386;9.980;2023-02-18T11:04:56;10.20;99.90
5429;DHT22;2737;52.386;9.980;2023-02-18T11:07:30;10.30;99.90
5429;DHT22;2737;52.386;9.980;2023-02-18T11:10:00;10.20;99.90
5429;DHT22;2737;52.386;9.980;2023-02-18T11:12:42;10.30;99.90
5429;DHT22;2737;52.386;9.980;2023-02-18T11:15:19;10.30;99.90
5429;DHT22;2737;52.386;9.980;2023-02-18T11:17:49;10.30;99.90
5429;DHT22;2737;52.386;9.980;2023-02-18T11:20:33;10.40;99.90
5429;DHT22;2737;52.386;9.980;2023-02-18T11:23:16;10.50;99.90
5429;DHT22;2737;52.386;9.980;2023-02-18T11:25:54;10.50;99.90
5429;DHT22;2737;52.386;9.980;2023-02-18T11:28:32;10.40;99.90
5429;DHT22;2737;52.386;9.980;2023-02-18T11:31:03;10.40;99.90
5429;DHT22;2737;52.386;9.980;2023-02-18T11:33:33;10.30;99.90
5429;DHT22;2737;52.386;9.980;2023-02-18T11:36:08;10.20;99.90
5429;DHT22;2737;52.386;9.980;2023-02-18T11:38:45;10.20;99.90
5429;DHT22;2737;52.386;9.980;2023-02-18T11:41:15;10.20;99.90
5429;DHT22;2737;52.386;9.980;2023-02-18T11:43:46;10.10;99.90
5429;DHT22;2737;52.386;9.980;2023-02-18T11:46:18;10.10;99.90
5429;DHT22;2737;52.386;9.980;2023-02-18T11:48:46;10.00;99.90
5429;DHT22;2737;52.386;9.980;2023-02-18T11:51:16;10.00;99.90
5429;DHT22;2737;52.386;9.980;2023-02-18T11:53:59;9.90;99.90
5429;DHT22;2737;52.386;9.980;2023-02-18T11:56:30;9.90;99.90
5429;DHT22;2737;52.386;9.980;2023-02-18T11:58:59;9.90;99.90
5429;DHT22;2737;52.386;9.980;2023-02-18T12:01:36;9.90;99.90
5429;DHT22;2737;52.386;9.980;2023-02-18T12:04:10;9.90;99.90
5429;DHT22;2737;52.386;9.980;2023-02-18T12:06:44;9.80;99.90
5429;DHT22;2737;52.386;9.980;2023-02-18T12:09:21;9.90;99.90
5429;DHT22;2737;52.386;9.980;2023-02-18T12:11:52;9.80;99.90
5429;DHT22;2737;52.386;9.980;2023-02-18T12:14:21;9.90;99.90
5429;DHT22;2737;52.386;9.980;2023-02-18T12:17:05;9.80;99.90
5429;DHT22;2737;52.386;9.980;2023-02-18T12:19:49;9.80;99.90
5429;DHT22;2737;52.386;9.980;2023-02-18T12:22:26;9.80;99.90
5429;DHT22;2737;52.386;9.980;2023-02-18T12:25:09;9.80;99.90
5429;DHT22;2737;52.386;9.980;2023-02-18T12:27:47;9.80;99.90
5429;DHT22;2737;52.386;9.980;2023-02-18T12:30:44;9.80;99.90
5429;DHT22;2737;52.386;9.980;2023-02-18T12:33:21;9.80;99.90
5429;DHT22;2737;52.386;9.980;2023-02-18T12:35:58;9.80;99.90
5429;DHT22;2737;52.386;9.980;2023-02-18T12:38:53;9.90;99.90
5429;DHT22;2737;52.386;9.980;2023-02-18T12:41:36;9.80;99.90
5429;DHT22;2737;52.386;9.980;2023-02-18T12:44:13;9.80;99.90
5429;DHT22;2737;52.386;9.980;2023-02-18T12:46:54;9.70;99.90
5429;DHT22;2737;52.386;9.980;2023-02-18T12:49:47;9.70;99.90
5429;DHT22;2737;52.386;9.980;2023-02-18T12:52:29;9.70;99.90
5429;DHT22;2737;52.386;9.980;2023-02-18T12:55:23;9.60;99.90
5429;DHT22;2737;52.386;9.980;2023-02-18T12:58:01;9.60;99.90
5429;DHT22;2737;52.386;9.980;2023-02-18T13:00:59;9.70;99.90
5429;DHT22;2737;52.386;9.980;2023-02-18T13:09:25;9.70;99.90
5429;DHT22;2737;52.386;9.980;2023-02-18T13:12:00;9.70;99.90
5429;DHT22;2737;52.386;9.980;2023-02-18T13:14:37;9.70;99.90
5429;DHT22;2737;52.386;9.980;2023-02-18T13:17:10;9.70;99.90
5429;DHT22;2737;52.386;9.980;2023-02-18T13:19:43;9.70;99.90
5429;DHT22;2737;52.386;9.980;2023-02-18T13:22:14;9.60;99.90
5429;DHT22;2737;52.386;9.980;2023-02-18T13:24:43;9.60;99.90
5429;DHT22;2737;52.386;9.980;2023-02-18T13:27:17;9.70;99.90
5429;DHT22;2737;52.386;9.980;2023-02-18T13:29:51;9.70;99.90
5429;DHT22;2737;52.386;9.980;2023-02-18T13:32:23;9.70;99.90
5429;DHT22;2737;52.386;9.980;2023-02-18T13:34:56;9.70;99.90
5429;DHT22;2737;52.386;9.980;2023-02-18T13:37:32;9.70;99.90
5429;DHT22;2737;52.386;9.980;2023-02-18T13:40:02;9.80;99.90
5429;DHT22;2737;52.386;9.980;2023-02-18T13:42:35;9.70;99.90
5429;DHT22;2737;52.386;9.980;2023-02-18T13:45:14;9.80;99.90
5429;DHT22;2737;52.386;9.980;2023-02-18T13:47:49;9.70;99.90
5429;DHT22;2737;52.386;9.980;2023-02-18T13:50:32;9.70;99.90
5429;DHT22;2737;52.386;9.980;2023-02-18T13:53:22;9.70;99.90
5429;DHT22;2737;52.386;9.980;2023-02-18T13:55:53;9.70;99.90
5429;DHT22;2737;52.386;9.980;2023-02-18T13:58:24;9.70;99.90
5429;DHT22;2737;52.386;9.980;2023-02-18T14:01:01;9.70;99.90
5429;DHT22;2737;52.386;9.980;2023-02-18T14:03:52;9.70;99.90
5429;DHT22;2737;52.386;9.980;2023-02-18T14:06:21;9.60;99.90
5429;DHT22;2737;52.386;9.980;2023-02-18T14:08:49;9.60;99.90
5429;DHT22;2737;52.386;9.980;2023-02-18T14:11:31;9.60;99.90
5429;DHT22;2737;52.386;9.980;2023-02-18T14:14:33;9.60;99.90
5429;DHT22;2737;52.386;9.980;2023-02-18T14:17:36;9.60;99.90
5429;DHT22;2737;52.386;9.980;2023-02-18T14:20:28;9.60;99.90
5429;DHT22;2737;52.386;9.980;2023-02-18T14:22:56;9.70;99.90
5429;DHT22;2737;52.386;9.980;2023-02-18T14:25:33;9.70;99.90
5429;DHT22;2737;52.386;9.980;2023-02-18T14:28:02;9.80;99.90
5429;DHT22;2737;52.386;9.980;2023-02-18T14:30:36;9.70;99.90
5429;DHT22;2737;52.386;9.980;2023-02-18T14:33:11;9.80;99.90
5429;DHT22;2737;52.386;9.980;2023-02-18T14:35:46;9.70;99.90
5429;DHT22;2737;52.386;9.980;2023-02-18T14:38:35;9.70;99.90
5429;DHT22;2737;52.386;9.980;2023-02-18T14:44:13;9.70;99.90
5429;DHT22;2737;52.386;9.980;2023-02-18T14:46:57;9.60;99.90
5429;DHT22;2737;52.386;9.980;2023-02-18T14:49:38;9.60;99.90
5429;DHT22;2737;52.386;9.980;2023-02-18T14:52:14;9.70;99.90
5429;DHT22;2737;52.386;9.980;2023-02-18T14:54:45;9.60;99.90
5429;DHT22;2737;52.386;9.980;2023-02-18T14:57:15;9.60;99.90
5429;DHT22;2737;52.386;9.980;2023-02-18T14:59:43;9.60;99.90
5429;DHT22;2737;52.386;9.980;2023-02-18T15:02:19;9.60;99.90
5429;DHT22;2737;52.386;9.980;2023-02-18T15:04:48;9.60;99.90
5429;DHT22;2737;52.386;9.980;2023-02-18T15:07:18;9.70;99.90
5429;DHT22;2737;52.386;9.980;2023-02-18T15:09:46;9.70;99.90
5429;DHT22;2737;52.386;9.980;2023-02-18T15:12:17;9.80;99.90
5429;DHT22;2737;52.386;9.980;2023-02-18T15:14:45;9.80;99.90
5429;DHT22;2737;52.386;9.980;2023-02-18T15:17:15;9.80;99.90
5429;DHT22;2737;52.386;9.980;2023-02-18T15:19:50;9.80;99.90
5429;DHT22;2737;52.386;9.980;2023-02-18T15:22:20;9.80;99.90
5429;DHT22;2737;52.386;9.980;2023-02-18T15:24:48;9.80;99.90
5429;DHT22;2737;52.386;9.980;2023-02-18T15:27:18;9.90;99.90
5429;DHT22;2737;52.386;9.980;2023-02-18T15:29:49;9.80;99.90
5429;DHT22;2737;52.386;9.980;2023-02-18T15:32:18;9.80;99.90
5429;DHT22;2737;52.386;9.980;2023-02-18T15:34:50;9.80;99.90
5429;DHT22;2737;52.386;9.980;2023-02-18T15:37:18;9.80;99.90
5429;DHT22;2737;52.386;9.980;2023-02-18T15:39:45;9.80;99.90
5429;DHT22;2737;52.386;9.980;2023-02-18T15:42:24;9.80;99.90
5429;DHT22;2737;52.386;9.980;2023-02-18T15:44:55;9.80;99.90
5429;DHT22;2737;52.386;9.980;2023-02-18T15:47:23;9.80;99.90
5429;DHT22;2737;52.386;9.980;2023-02-18T15:49:53;9.70;99.90
5429;DHT22;2737;52.386;9.980;2023-02-18T15:52:26;9.70;99.90
5429;DHT22;2737;52.386;9.980;2023-02-18T15:54:54;9.70;99.90
5429;DHT22;2737;52.386;9.980;2023-02-18T15:57:25;9.70;99.90
5429;DHT22;2737;52.386;9.980;2023-02-18T15:59:56;9.60;99.90
5429;DHT22;2737;52.386;9.980;2023-02-18T16:02:28;9.60;99.90
5429;DHT22;2737;52.386;9.980;2023-02-18T16:05:00;9.60;99.90
5429;DHT22;2737;52.386;9.980;2023-02-18T16:07:28;9.60;99.90
5429;DHT22;2737;52.386;9.980;2023-02-18T16:10:15;9.60;99.90
5429;DHT22;2737;52.386;9.980;2023-02-18T16:12:45;9.70;99.90
5429;DHT22;2737;52.386;9.980;2023-02-18T16:15:30;9.70;99.90
5429;DHT22;2737;52.386;9.980;2023-02-18T16:17:58;9.70;99.90
5429;DHT22;2737;52.386;9.980;2023-02-18T16:20:30;9.70;99.90
5429;DHT22;2737;52.386;9.980;2023-02-18T16:23:00;9.70;99.90
5429;DHT22;2737;52.386;9.980;2023-02-18T16:25:39;9.70;99.90
5429;DHT22;2737;52.386;9.980;2023-02-18T16:28:11;9.70;99.90
5429;DHT22;2737;52.386;9.980;2023-02-18T16:30:41;9.70;99.90
5429;DHT22;2737;52.386;9.980;2023-02-18T16:33:10;9.80;99.90
5429;DHT22;2737;52.386;9.980;2023-02-18T16:35:38;9.70;99.90
5429;DHT22;2737;52.386;9.980;2023-02-18T16:38:06;9.80;99.90
5429;DHT22;2737;52.386;9.980;2023-02-18T16:40:35;9.70;99.90
5429;DHT22;2737;52.386;9.980;2023-02-18T16:43:10;9.70;99.90
5429;DHT22;2737;52.386;9.980;2023-02-18T16:45:39;9.70;99.90
5429;DHT22;2737;52.386;9.980;2023-02-18T16:48:15;9.70;99.90
5429;DHT22;2737;52.386;9.980;2023-02-18T16:50:45;9.70;99.90
5429;DHT22;2737;52.386;9.980;2023-02-18T16:53:12;9.70;99.90
5429;DHT22;2737;52.386;9.980;2023-02-18T16:55:40;9.70;99.90
5429;DHT22;2737;52.386;9.980;2023-02-18T16:58:07;9.70;99.90